createdAt,value
2019-03-06T00:02:13.625Z,99244.00
2019-03-06T00:04:44.292Z,99249.00
2019-03-06T00:07:17.348Z,99254.00
2019-03-06T00:09:47.913Z,99256.00
2019-03-06T00:12:18.487Z,99260.00
2019-03-06T00:14:49.082Z,99266.00
2019-03-06T00:17:20.720Z,99263.00
2019-03-06T00:19:51.306Z,99262.00
2019-03-06T00:22:21.872Z,99263.00
2019-03-06T00:24:52.647Z,99266.00
2019-03-06T00:27:23.223Z,99272.00
2019-03-06T00:29:54.080Z,99257.00
2019-03-06T00:32:24.734Z,99269.00
2019-03-06T00:34:57.127Z,99269.00
2019-03-06T00:37:28.773Z,99257.00
2019-03-06T00:40:09.322Z,99270.00
2019-03-06T00:42:45.304Z,99262.00
2019-03-06T00:45:15.825Z,99255.00
2019-03-06T00:47:46.269Z,99260.00
2019-03-06T00:50:16.865Z,99254.00
2019-03-06T00:52:47.396Z,99257.00
2019-03-06T00:55:18.177Z,99258.00
2019-03-06T00:57:49.059Z,99268.00
2019-03-06T01:00:21.583Z,99272.00
2019-03-06T01:02:52.202Z,99258.00
2019-03-06T01:05:23.451Z,99256.00
2019-03-06T01:07:54.010Z,99269.00
2019-03-06T01:10:24.733Z,99266.00
2019-03-06T01:12:55.216Z,99262.00
2019-03-06T01:15:25.753Z,99266.00
2019-03-06T01:17:56.315Z,99259.00
2019-03-06T01:20:26.925Z,99258.00
2019-03-06T01:22:57.368Z,99258.00
2019-03-06T01:25:27.968Z,99260.00
2019-03-06T01:27:58.803Z,99256.00
2019-03-06T01:30:29.374Z,99256.00
2019-03-06T01:33:05.440Z,99259.00
2019-03-06T01:35:57.693Z,99261.00
2019-03-06T01:38:47.226Z,99264.00
2019-03-06T01:41:24.571Z,99263.00
2019-03-06T01:44:02.324Z,99268.00
2019-03-06T01:46:32.884Z,99266.00
2019-03-06T01:49:03.414Z,99268.00
2019-03-06T01:51:34.001Z,99263.00
2019-03-06T01:54:04.647Z,99266.00
2019-03-06T01:56:35.538Z,99264.00
2019-03-06T01:59:06.070Z,99265.00
2019-03-06T02:01:36.594Z,99267.00
2019-03-06T02:04:07.207Z,99271.00
2019-03-06T02:06:37.662Z,99267.00
2019-03-06T02:09:11.086Z,99273.00
2019-03-06T02:11:41.635Z,99275.00
2019-03-06T02:14:12.514Z,99270.00
2019-03-06T02:16:43.021Z,99266.00
2019-03-06T02:19:13.567Z,99262.00
2019-03-06T02:21:44.026Z,99261.00
2019-03-06T02:24:14.534Z,99264.00
2019-03-06T02:26:45.050Z,99270.00
2019-03-06T02:29:15.627Z,99263.00
2019-03-06T02:31:46.267Z,99259.00
2019-03-06T02:34:16.835Z,99263.00
2019-03-06T02:36:47.633Z,99268.00
2019-03-06T02:39:18.140Z,99275.00
2019-03-06T02:41:48.654Z,99276.00
2019-03-06T02:44:19.138Z,99268.00
2019-03-06T02:46:49.614Z,99275.00
2019-03-06T02:49:20.321Z,99264.00
2019-03-06T02:51:50.771Z,99262.00
2019-03-06T02:54:21.334Z,99260.00
2019-03-06T02:56:51.787Z,99252.00
2019-03-06T02:59:41.200Z,99257.00
2019-03-06T03:02:27.896Z,99261.00
2019-03-06T03:05:10.171Z,99260.00
2019-03-06T03:07:40.630Z,99265.00
2019-03-06T03:10:11.628Z,99274.00
2019-03-06T03:12:42.164Z,99271.00
2019-03-06T03:15:12.868Z,99275.00
2019-03-06T03:17:43.338Z,99273.00
2019-03-06T03:20:14.170Z,99278.00
2019-03-06T03:22:44.616Z,99278.00
2019-03-06T03:25:15.182Z,99269.00
2019-03-06T03:27:45.816Z,99276.00
2019-03-06T03:30:16.853Z,99272.00
2019-03-06T03:32:47.350Z,99278.00
2019-03-06T03:35:19.315Z,99276.00
2019-03-06T03:37:49.825Z,99276.00
2019-03-06T03:40:20.344Z,99270.00
2019-03-06T03:42:50.950Z,99277.00
2019-03-06T03:45:21.516Z,99274.00
2019-03-06T03:47:52.004Z,99269.00
2019-03-06T03:50:22.489Z,99277.00
2019-03-06T03:52:53.038Z,99278.00
2019-03-06T03:55:23.554Z,99279.00
2019-03-06T03:57:54.027Z,99286.00
2019-03-06T04:00:24.812Z,99288.00
2019-03-06T04:02:55.489Z,99280.00
2019-03-06T04:05:25.934Z,99276.00
2019-03-06T04:07:56.427Z,99275.00
2019-03-06T04:10:26.923Z,99273.00
2019-03-06T04:12:57.430Z,99278.00
2019-03-06T04:15:27.926Z,99277.00
2019-03-06T04:17:58.438Z,99274.00
2019-03-06T04:20:28.936Z,99275.00
2019-03-06T04:22:59.423Z,99271.00
2019-03-06T04:25:29.956Z,99269.00
2019-03-06T04:28:00.421Z,99265.00
2019-03-06T04:30:32.118Z,99258.00
2019-03-06T04:33:02.621Z,99255.00
2019-03-06T04:35:33.227Z,99257.00
2019-03-06T04:38:05.778Z,99248.00
2019-03-06T04:40:36.339Z,99245.00
2019-03-06T04:43:06.924Z,99242.00
2019-03-06T04:45:37.507Z,99240.00
2019-03-06T04:48:08.042Z,99238.00
2019-03-06T04:50:38.639Z,99236.00
2019-03-06T04:53:09.446Z,99234.00
2019-03-06T04:55:40.030Z,99230.00
2019-03-06T04:58:10.601Z,99242.00
2019-03-06T05:00:43.154Z,99243.00
2019-03-06T05:03:13.851Z,99247.00
2019-03-06T05:05:44.623Z,99242.00
2019-03-06T05:08:15.179Z,99250.00
2019-03-06T05:10:45.783Z,99252.00
2019-03-06T05:13:16.578Z,99255.00
2019-03-06T05:15:47.169Z,99263.00
2019-03-06T05:18:54.799Z,99266.00
2019-03-06T05:21:25.377Z,99272.00
2019-03-06T05:23:57.353Z,99269.00
2019-03-06T05:26:27.976Z,99274.00
2019-03-06T05:28:58.506Z,99278.00
2019-03-06T05:31:29.091Z,99278.00
2019-03-06T05:34:00.779Z,99277.00
2019-03-06T05:37:20.313Z,99274.00
2019-03-06T05:39:50.865Z,99255.00
2019-03-06T05:42:22.534Z,99268.00
2019-03-06T05:44:54.567Z,99253.00
2019-03-06T05:47:26.955Z,99259.00
2019-03-06T05:49:58.619Z,99255.00
2019-03-06T05:52:48.223Z,99254.00
2019-03-06T05:55:18.918Z,99246.00
2019-03-06T05:57:49.596Z,99245.00
2019-03-06T06:00:21.994Z,99243.00
2019-03-06T06:02:53.780Z,99233.00
2019-03-06T06:05:24.365Z,99232.00
2019-03-06T06:07:54.935Z,99229.00
2019-03-06T06:10:25.470Z,99223.00
2019-03-06T06:12:57.216Z,99215.00
2019-03-06T06:15:27.786Z,99230.00
2019-03-06T06:17:58.700Z,99223.00
2019-03-06T06:20:29.287Z,99217.00
2019-03-06T06:23:20.520Z,99221.00
2019-03-06T06:25:51.128Z,99226.00
2019-03-06T06:28:23.507Z,99220.00
2019-03-06T06:30:58.727Z,99215.00
2019-03-06T06:33:29.421Z,99208.00
2019-03-06T06:36:01.103Z,99198.00
2019-03-06T06:38:31.651Z,99208.00
2019-03-06T06:41:02.218Z,99205.00
2019-03-06T06:43:32.866Z,99199.00
2019-03-06T06:46:03.441Z,99203.00
2019-03-06T06:48:35.619Z,99209.00
2019-03-06T06:51:53.763Z,99213.00
2019-03-06T06:55:19.980Z,99202.00
2019-03-06T06:58:31.594Z,99212.00
2019-03-06T07:01:52.554Z,99215.00
2019-03-06T07:05:30.467Z,99208.00
2019-03-06T07:08:29.345Z,99206.00
2019-03-06T07:11:21.135Z,99198.00
2019-03-06T07:14:16.713Z,99192.00
2019-03-06T07:17:12.344Z,99195.00
2019-03-06T07:20:08.271Z,99194.00
2019-03-06T07:23:01.889Z,99194.00
2019-03-06T07:25:43.272Z,99183.00
2019-03-06T07:28:32.822Z,99182.00
2019-03-06T07:31:25.370Z,99177.00
2019-03-06T07:34:15.083Z,99183.00
2019-03-06T07:36:49.956Z,99171.00
2019-03-06T07:39:32.107Z,99170.00
2019-03-06T07:42:20.387Z,99162.00
2019-03-06T07:45:59.267Z,99162.00
2019-03-06T07:48:58.857Z,99165.00
2019-03-06T07:51:48.481Z,99162.00
2019-03-06T07:54:37.975Z,99158.00
2019-03-06T07:57:36.646Z,99158.00
2019-03-06T08:00:19.558Z,99150.00
2019-03-06T08:03:22.571Z,99157.00
2019-03-06T08:05:53.152Z,99150.00
2019-03-06T08:08:23.868Z,99153.00
2019-03-06T08:10:55.362Z,99144.00
2019-03-06T08:13:51.058Z,99130.00
2019-03-06T08:16:29.986Z,99139.00
2019-03-06T08:19:34.580Z,99129.00
2019-03-06T08:22:39.041Z,99130.00
2019-03-06T08:25:36.148Z,99128.00
2019-03-06T08:28:06.775Z,99126.00
2019-03-06T08:30:39.722Z,99125.00
2019-03-06T08:33:17.895Z,99117.00
2019-03-06T08:35:42.850Z,99111.00
2019-03-06T08:38:14.940Z,99102.00
2019-03-06T08:40:45.575Z,99099.00
2019-03-06T08:43:16.134Z,99093.00
2019-03-06T08:46:03.526Z,99104.00
2019-03-06T08:48:55.463Z,99106.00
2019-03-06T08:51:44.574Z,99106.00
2019-03-06T08:54:21.928Z,99105.00
2019-03-06T08:57:07.627Z,99088.00
2019-03-06T08:59:50.106Z,99093.00
2019-03-06T09:02:50.484Z,99101.00
2019-03-06T09:05:44.826Z,99100.00
2019-03-06T09:08:39.118Z,99095.00
2019-03-06T09:11:34.763Z,99085.00
2019-03-06T09:14:23.047Z,99081.00
2019-03-06T09:17:21.690Z,99076.00
2019-03-06T09:20:02.621Z,99071.00
2019-03-06T09:22:52.109Z,99072.00
2019-03-06T09:25:41.618Z,99067.00
2019-03-06T09:28:39.583Z,99061.00
2019-03-06T09:31:34.967Z,99066.00
2019-03-06T09:34:17.407Z,99052.00
2019-03-06T09:37:11.089Z,99061.00
2019-03-06T09:39:54.370Z,99050.00
2019-03-06T09:42:42.701Z,99048.00
2019-03-06T09:45:27.838Z,99049.00
2019-03-06T09:48:19.443Z,99036.00
2019-03-06T09:51:02.111Z,99031.00
2019-03-06T09:54:00.731Z,99039.00
2019-03-06T09:56:39.825Z,99030.00
2019-03-06T09:59:29.364Z,99038.00
2019-03-06T10:02:22.983Z,99039.00
2019-03-06T10:05:11.900Z,99030.00
2019-03-06T10:08:04.189Z,99024.00
2019-03-06T10:10:47.555Z,99024.00
2019-03-06T10:13:32.260Z,99019.00
2019-03-06T10:16:23.213Z,99020.00
2019-03-06T10:19:08.918Z,99021.00
2019-03-06T10:21:40.759Z,99016.00
2019-03-06T10:24:11.470Z,99007.00
2019-03-06T10:26:42.110Z,99001.00
2019-03-06T10:29:14.164Z,98995.00
2019-03-06T10:31:44.809Z,98997.00
2019-03-06T10:34:15.407Z,98994.00
2019-03-06T10:36:45.935Z,98990.00
2019-03-06T10:39:17.782Z,98998.00
2019-03-06T10:41:48.471Z,98996.00
2019-03-06T10:44:19.041Z,98989.00
2019-03-06T10:46:49.608Z,98986.00
2019-03-06T10:49:20.161Z,98979.00
2019-03-06T10:51:50.767Z,98992.00
2019-03-06T10:54:21.498Z,98983.00
2019-03-06T10:56:52.190Z,98988.00
2019-03-06T10:59:22.838Z,98983.00
2019-03-06T11:01:55.231Z,98973.00
2019-03-06T11:04:33.060Z,98975.00
2019-03-06T11:07:04.017Z,98969.00
2019-03-06T11:09:35.935Z,98961.00
2019-03-06T11:12:08.556Z,98967.00
2019-03-06T11:14:39.681Z,98966.00
2019-03-06T11:17:10.769Z,98958.00
2019-03-06T11:19:41.994Z,98951.00
2019-03-06T11:22:12.750Z,98956.00
2019-03-06T11:24:43.318Z,98942.00
2019-03-06T11:27:14.034Z,98944.00
2019-03-06T11:29:44.577Z,98943.00
2019-03-06T11:32:15.467Z,98940.00
2019-03-06T11:34:47.882Z,98941.00
2019-03-06T11:37:18.577Z,98945.00
2019-03-06T11:39:49.132Z,98933.00
2019-03-06T11:42:19.722Z,98938.00
2019-03-06T11:44:50.265Z,98942.00
2019-03-06T11:47:21.016Z,98928.00
2019-03-06T11:49:51.659Z,98923.00
2019-03-06T11:52:22.589Z,98927.00
2019-03-06T11:54:53.174Z,98929.00
2019-03-06T11:57:23.981Z,98922.00
2019-03-06T11:59:54.672Z,98916.00
2019-03-06T12:02:25.495Z,98920.00
2019-03-06T12:04:56.081Z,98911.00
2019-03-06T12:07:26.739Z,98911.00
2019-03-06T12:09:57.307Z,98907.00
2019-03-06T12:12:28.016Z,98910.00
2019-03-06T12:14:58.834Z,98897.00
2019-03-06T12:17:29.409Z,98889.00
2019-03-06T12:20:07.737Z,98892.00
2019-03-06T12:22:32.488Z,98885.00
2019-03-06T12:25:03.094Z,98888.00
2019-03-06T12:27:33.648Z,98880.00
2019-03-06T12:30:04.701Z,98881.00
2019-03-06T12:32:35.373Z,98874.00
2019-03-06T12:35:06.832Z,98865.00
2019-03-06T12:37:46.515Z,98859.00
2019-03-06T12:40:13.011Z,98849.00
2019-03-06T12:42:44.121Z,98842.00
2019-03-06T12:45:16.742Z,98839.00
2019-03-06T12:47:55.104Z,98821.00
2019-03-06T12:50:23.985Z,98819.00
2019-03-06T12:52:54.535Z,98806.00
2019-03-06T12:55:26.568Z,98802.00
2019-03-06T12:57:59.552Z,98805.00
2019-03-06T13:00:29.730Z,98796.00
2019-03-06T13:03:00.296Z,98794.00
2019-03-06T13:05:30.877Z,98798.00
2019-03-06T13:08:01.546Z,98803.00
2019-03-06T13:10:32.109Z,98800.00
2019-03-06T13:13:02.690Z,98792.00
2019-03-06T13:15:34.854Z,98791.00
2019-03-06T13:18:05.659Z,98783.00
2019-03-06T13:20:36.255Z,98768.00
2019-03-06T13:23:08.532Z,98768.00
2019-03-06T13:25:40.844Z,98750.00
2019-03-06T13:28:13.445Z,98756.00
2019-03-06T13:30:45.282Z,98749.00
2019-03-06T13:33:23.061Z,98741.00
2019-03-06T13:35:53.758Z,98731.00
2019-03-06T13:38:24.351Z,98714.00
2019-03-06T13:40:54.936Z,98712.00
2019-03-06T13:43:25.660Z,98704.00
2019-03-06T13:45:57.364Z,98688.00
2019-03-06T13:48:27.967Z,98685.00
2019-03-06T13:50:58.783Z,98678.00
2019-03-06T13:53:29.614Z,98669.00
2019-03-06T13:56:00.370Z,98666.00
2019-03-06T13:58:37.060Z,98664.00
2019-03-06T14:01:10.976Z,98662.00
2019-03-06T14:03:42.022Z,98667.00
2019-03-06T14:06:13.921Z,98654.00
2019-03-06T14:08:46.480Z,98661.00
2019-03-06T14:11:17.073Z,98657.00
2019-03-06T14:13:47.851Z,98653.00
2019-03-06T14:16:19.846Z,98652.00
2019-03-06T14:18:50.564Z,98658.00
2019-03-06T14:21:22.613Z,98652.00
2019-03-06T14:23:53.273Z,98654.00
2019-03-06T14:26:24.506Z,98633.00
2019-03-06T14:28:55.289Z,98637.00
2019-03-06T14:31:25.866Z,98637.00
2019-03-06T14:33:57.922Z,98630.00
2019-03-06T14:36:29.740Z,98623.00
2019-03-06T14:39:00.467Z,98618.00
2019-03-06T14:41:31.609Z,98610.00
2019-03-06T14:44:04.913Z,98617.00
2019-03-06T14:46:35.556Z,98607.00
2019-03-06T14:49:06.281Z,98599.00
2019-03-06T14:51:36.848Z,98597.00
2019-03-06T14:54:08.509Z,98592.00
2019-03-06T14:56:39.227Z,98585.00
2019-03-06T14:59:09.853Z,98576.00
2019-03-06T15:01:40.729Z,98571.00
2019-03-06T15:04:11.317Z,98569.00
2019-03-06T15:06:45.204Z,98562.00
2019-03-06T15:09:28.473Z,98548.00
2019-03-06T15:11:59.048Z,98557.00
2019-03-06T15:14:36.140Z,98550.00
2019-03-06T15:17:01.937Z,98550.00
2019-03-06T15:19:32.506Z,98541.00
2019-03-06T15:22:03.073Z,98535.00
2019-03-06T15:24:41.293Z,98529.00
2019-03-06T15:27:07.511Z,98531.00
2019-03-06T15:29:38.481Z,98534.00
2019-03-06T15:32:09.093Z,98531.00
2019-03-06T15:34:41.384Z,98518.00
2019-03-06T15:37:12.060Z,98513.00
2019-03-06T15:39:48.441Z,98516.00
2019-03-06T15:42:18.497Z,98499.00
2019-03-06T15:44:50.194Z,98496.00
2019-03-06T15:47:21.166Z,98491.00
2019-03-06T15:49:53.228Z,98493.00
2019-03-06T15:52:24.878Z,98476.00
2019-03-06T15:54:56.690Z,98485.00
2019-03-06T15:57:27.256Z,98485.00
2019-03-06T15:59:58.154Z,98463.00
2019-03-06T16:02:30.053Z,98472.00
2019-03-06T16:05:00.735Z,98453.00
2019-03-06T16:07:31.633Z,98464.00
2019-03-06T16:10:02.192Z,98459.00
2019-03-06T16:12:34.606Z,98445.00
2019-03-06T16:15:07.659Z,98448.00
2019-03-06T16:17:38.543Z,98452.00
2019-03-06T16:20:17.392Z,98442.00
2019-03-06T16:22:49.696Z,98447.00
2019-03-06T16:25:22.155Z,98443.00
2019-03-06T16:27:52.951Z,98447.00
2019-03-06T16:30:24.001Z,98446.00
2019-03-06T16:32:54.828Z,98434.00
2019-03-06T16:35:25.744Z,98438.00
2019-03-06T16:37:56.519Z,98423.00
2019-03-06T16:40:27.767Z,98428.00
2019-03-06T16:42:58.392Z,98426.00
2019-03-06T16:45:30.055Z,98417.00
2019-03-06T16:48:00.873Z,98409.00
2019-03-06T16:50:32.547Z,98411.00
2019-03-06T16:53:03.206Z,98402.00
2019-03-06T16:55:33.788Z,98400.00
2019-03-06T16:58:09.168Z,98404.00
2019-03-06T17:00:40.020Z,98395.00
2019-03-06T17:03:10.869Z,98395.00
2019-03-06T17:05:41.636Z,98404.00
2019-03-06T17:08:12.239Z,98397.00
2019-03-06T17:10:43.951Z,98391.00
2019-03-06T17:13:14.624Z,98396.00
2019-03-06T17:15:45.400Z,98390.00
2019-03-06T17:18:16.302Z,98387.00
2019-03-06T17:20:48.036Z,98390.00
2019-03-06T17:23:18.676Z,98392.00
2019-03-06T17:25:51.415Z,98380.00
2019-03-06T17:28:25.491Z,98376.00
2019-03-06T17:30:56.263Z,98372.00
2019-03-06T17:33:41.014Z,98370.00
2019-03-06T17:36:12.837Z,98364.00
2019-03-06T17:38:43.666Z,98356.00
2019-03-06T17:41:14.451Z,98355.00
2019-03-06T17:43:46.706Z,98352.00
2019-03-06T17:46:17.292Z,98350.00
2019-03-06T17:48:48.340Z,98350.00
2019-03-06T17:51:18.893Z,98356.00
2019-03-06T17:53:49.630Z,98351.00
2019-03-06T17:56:39.366Z,98346.00
2019-03-06T17:59:10.220Z,98335.00
2019-03-06T18:01:40.879Z,98338.00
2019-03-06T18:04:18.622Z,98324.00
2019-03-06T18:06:50.675Z,98337.00
2019-03-06T18:09:22.664Z,98335.00
2019-03-06T18:11:56.397Z,98332.00
2019-03-06T18:14:27.067Z,98334.00
2019-03-06T18:16:57.616Z,98324.00
2019-03-06T18:19:28.216Z,98322.00
2019-03-06T18:21:58.816Z,98312.00
2019-03-06T18:24:29.521Z,98310.00
2019-03-06T18:27:00.575Z,98321.00
2019-03-06T18:29:31.264Z,98311.00
2019-03-06T18:32:01.877Z,98318.00
2019-03-06T18:34:32.510Z,98311.00
2019-03-06T18:37:04.373Z,98308.00
2019-03-06T18:39:34.958Z,98302.00
2019-03-06T18:42:05.508Z,98297.00
2019-03-06T18:44:37.569Z,98297.00
2019-03-06T18:47:08.280Z,98289.00
2019-03-06T18:49:38.886Z,98286.00
2019-03-06T18:52:09.506Z,98289.00
2019-03-06T18:54:41.246Z,98286.00
2019-03-06T18:57:16.891Z,98284.00
2019-03-06T18:59:48.022Z,98288.00
2019-03-06T19:02:18.576Z,98291.00
2019-03-06T19:04:52.332Z,98297.00
2019-03-06T19:07:26.348Z,98284.00
2019-03-06T19:10:02.223Z,98283.00
2019-03-06T19:12:33.180Z,98280.00
2019-03-06T19:15:04.879Z,98279.00
2019-03-06T19:17:35.551Z,98278.00
2019-03-06T19:20:06.562Z,98280.00
2019-03-06T19:22:37.269Z,98273.00
2019-03-06T19:25:08.433Z,98274.00
2019-03-06T19:27:40.091Z,98272.00
2019-03-06T19:30:20.080Z,98262.00
2019-03-06T19:32:50.964Z,98261.00
2019-03-06T19:35:22.710Z,98256.00
2019-03-06T19:37:53.426Z,98261.00
2019-03-06T19:40:25.761Z,98261.00
2019-03-06T19:42:56.484Z,98264.00
2019-03-06T19:45:29.154Z,98259.00
2019-03-06T19:47:59.949Z,98237.00
2019-03-06T19:50:30.502Z,98242.00
2019-03-06T19:53:01.088Z,98240.00
2019-03-06T19:55:31.781Z,98230.00
2019-03-06T19:58:05.526Z,98226.00
2019-03-06T20:00:37.743Z,98231.00
2019-03-06T20:03:10.034Z,98229.00
2019-03-06T20:05:41.066Z,98231.00
2019-03-06T20:08:13.075Z,98215.00
2019-03-06T20:10:43.709Z,98226.00
2019-03-06T20:13:14.696Z,98220.00
2019-03-06T20:15:45.267Z,98213.00
2019-03-06T20:18:15.831Z,98212.00
2019-03-06T20:20:46.560Z,98194.00
2019-03-06T20:23:17.180Z,98203.00
2019-03-06T20:25:47.901Z,98193.00
2019-03-06T20:28:18.919Z,98192.00
2019-03-06T20:30:49.650Z,98193.00
2019-03-06T20:33:20.772Z,98186.00
2019-03-06T20:35:51.366Z,98183.00
2019-03-06T20:38:23.426Z,98181.00
2019-03-06T20:40:54.018Z,98170.00
2019-03-06T20:43:24.701Z,98178.00
2019-03-06T20:45:55.570Z,98179.00
2019-03-06T20:48:26.190Z,98174.00
2019-03-06T20:50:56.786Z,98177.00
2019-03-06T20:53:27.466Z,98172.00
2019-03-06T20:55:58.039Z,98175.00
2019-03-06T20:58:28.624Z,98159.00
2019-03-06T21:00:59.328Z,98173.00
2019-03-06T21:03:30.090Z,98172.00
2019-03-06T21:06:00.764Z,98164.00
2019-03-06T21:08:31.377Z,98164.00
2019-03-06T21:11:01.960Z,98160.00
2019-03-06T21:13:32.669Z,98167.00
2019-03-06T21:16:03.360Z,98167.00
2019-03-06T21:18:35.403Z,98165.00
2019-03-06T21:21:06.269Z,98168.00
2019-03-06T21:23:36.844Z,98151.00
2019-03-06T21:26:08.459Z,98159.00
2019-03-06T21:28:39.034Z,98149.00
2019-03-06T21:31:09.973Z,98156.00
2019-03-06T21:33:41.931Z,98148.00
2019-03-06T21:36:12.518Z,98151.00
2019-03-06T21:38:43.175Z,98149.00
2019-03-06T21:41:14.962Z,98142.00
2019-03-06T21:43:45.512Z,98141.00
2019-03-06T21:46:16.448Z,98139.00
2019-03-06T21:48:47.125Z,98143.00
2019-03-06T21:51:19.527Z,98140.00
2019-03-06T21:53:50.178Z,98139.00
2019-03-06T21:56:20.793Z,98141.00
2019-03-06T21:58:51.433Z,98137.00
2019-03-06T22:01:22.045Z,98134.00
2019-03-06T22:03:52.692Z,98131.00
2019-03-06T22:06:23.320Z,98135.00
2019-03-06T22:08:53.869Z,98127.00
2019-03-06T22:11:26.262Z,98129.00
2019-03-06T22:13:57.092Z,98127.00
2019-03-06T22:16:27.648Z,98125.00
2019-03-06T22:19:00.941Z,98128.00
2019-03-06T22:21:33.002Z,98121.00
2019-03-06T22:24:03.573Z,98111.00
2019-03-06T22:26:35.515Z,98106.00
2019-03-06T22:29:07.190Z,98101.00
2019-03-06T22:31:37.938Z,98098.00
2019-03-06T22:34:09.624Z,98096.00
2019-03-06T22:36:40.293Z,98095.00
2019-03-06T22:39:11.358Z,98086.00
2019-03-06T22:41:41.927Z,98078.00
2019-03-06T22:44:12.717Z,98079.00
2019-03-06T22:46:43.269Z,98080.00
2019-03-06T22:49:13.851Z,98070.00
2019-03-06T22:51:44.579Z,98075.00
2019-03-06T22:54:15.247Z,98078.00
2019-03-06T22:56:45.826Z,98077.00
2019-03-06T22:59:16.441Z,98066.00
2019-03-06T23:01:47.341Z,98062.00
2019-03-06T23:04:19.597Z,98062.00
2019-03-06T23:06:50.969Z,98057.00
2019-03-06T23:09:22.856Z,98048.00
2019-03-06T23:11:53.393Z,98041.00
2019-03-06T23:14:23.963Z,98033.00
2019-03-06T23:16:54.746Z,98022.00
2019-03-06T23:19:25.527Z,98023.00
2019-03-06T23:21:57.092Z,98026.00
2019-03-06T23:24:27.680Z,98018.00
2019-03-06T23:26:58.332Z,98018.00
2019-03-06T23:29:28.917Z,98012.00
2019-03-06T23:31:59.462Z,98015.00
2019-03-06T23:34:31.287Z,98006.00
2019-03-06T23:37:01.893Z,98004.00
2019-03-06T23:39:34.305Z,98004.00
2019-03-06T23:42:04.995Z,98005.00
2019-03-06T23:44:54.743Z,98014.00
2019-03-06T23:47:25.312Z,98015.00
2019-03-06T23:49:55.898Z,98005.00
2019-03-06T23:52:34.630Z,98005.00
2019-03-06T23:55:05.533Z,98009.00
2019-03-06T23:57:36.346Z,98002.00
